sensor_id;sensor_type;location;lat;lon;timestamp;temperature;humidity
22290;DHT22;11313;50.116;8.424;2023-02-13T00:01:04;24.40;41.20
22290;DHT22;11313;50.116;8.424;2023-02-13T00:03:30;24.40;41.20
22290;DHT22;11313;50.116;8.424;2023-02-13T00:05:55;24.40;41.20
22290;DHT22;11313;50.116;8.424;2023-02-13T00:08:21;24.40;41.10
22290;DHT22;11313;50.116;8.424;2023-02-13T00:10:47;24.40;41.10
22290;DHT22;11313;50.116;8.424;2023-02-13T00:13:12;24.40;41.20
22290;DHT22;11313;50.116;8.424;2023-02-13T00:15:38;24.40;41.20
22290;DHT22;11313;50.116;8.424;2023-02-13T00:18:03;24.40;41.10
22290;DHT22;11313;50.116;8.424;2023-02-13T00:20:29;24.40;41.20
22290;DHT22;11313;50.116;8.424;2023-02-13T00:22:55;24.40;41.10
22290;DHT22;11313;50.116;8.424;2023-02-13T00:25:20;24.40;41.20
22290;DHT22;11313;50.116;8.424;2023-02-13T00:27:46;24.40;41.20
22290;DHT22;11313;50.116;8.424;2023-02-13T00:30:11;24.40;41.20
22290;DHT22;11313;50.116;8.424;2023-02-13T00:32:37;24.40;41.20
22290;DHT22;11313;50.116;8.424;2023-02-13T00:35:03;24.40;41.10
22290;DHT22;11313;50.116;8.424;2023-02-13T00:37:29;24.40;41.10
22290;DHT22;11313;50.116;8.424;2023-02-13T00:39:54;24.40;41.20
22290;DHT22;11313;50.116;8.424;2023-02-13T00:42:20;24.40;41.10
22290;DHT22;11313;50.116;8.424;2023-02-13T00:44:48;24.40;41.20
22290;DHT22;11313;50.116;8.424;2023-02-13T00:47:13;24.40;41.20
22290;DHT22;11313;50.116;8.424;2023-02-13T00:49:39;24.40;41.10
22290;DHT22;11313;50.116;8.424;2023-02-13T00:52:05;24.40;41.20
22290;DHT22;11313;50.116;8.424;2023-02-13T00:54:31;24.40;41.20
22290;DHT22;11313;50.116;8.424;2023-02-13T00:56:56;24.40;41.20
22290;DHT22;11313;50.116;8.424;2023-02-13T00:59:22;24.40;41.20
22290;DHT22;11313;50.116;8.424;2023-02-13T01:01:47;24.40;41.20
22290;DHT22;11313;50.116;8.424;2023-02-13T01:04:13;24.40;41.20
22290;DHT22;11313;50.116;8.424;2023-02-13T01:06:38;24.40;41.20
22290;DHT22;11313;50.116;8.424;2023-02-13T01:09:04;24.40;41.30
22290;DHT22;11313;50.116;8.424;2023-02-13T01:11:30;24.40;41.20
22290;DHT22;11313;50.116;8.424;2023-02-13T01:13:56;24.40;41.30
22290;DHT22;11313;50.116;8.424;2023-02-13T01:16:21;24.40;41.30
22290;DHT22;11313;50.116;8.424;2023-02-13T01:18:47;24.40;41.30
22290;DHT22;11313;50.116;8.424;2023-02-13T01:21:18;24.40;41.40
22290;DHT22;11313;50.116;8.424;2023-02-13T01:23:45;24.40;41.40
22290;DHT22;11313;50.116;8.424;2023-02-13T01:26:16;24.30;41.30
22290;DHT22;11313;50.116;8.424;2023-02-13T01:28:42;24.30;41.30
22290;DHT22;11313;50.116;8.424;2023-02-13T01:31:08;24.30;41.30
22290;DHT22;11313;50.116;8.424;2023-02-13T01:33:34;24.30;41.30
22290;DHT22;11313;50.116;8.424;2023-02-13T01:36:05;24.30;41.40
22290;DHT22;11313;50.116;8.424;2023-02-13T01:38:31;24.30;41.40
22290;DHT22;11313;50.116;8.424;2023-02-13T01:40:56;24.30;41.40
22290;DHT22;11313;50.116;8.424;2023-02-13T01:43:22;24.30;41.40
22290;DHT22;11313;50.116;8.424;2023-02-13T01:45:52;24.30;41.40
22290;DHT22;11313;50.116;8.424;2023-02-13T01:48:20;24.30;41.40
22290;DHT22;11313;50.116;8.424;2023-02-13T01:53:23;24.30;41.40
22290;DHT22;11313;50.116;8.424;2023-02-13T01:56:10;24.30;41.40
22290;DHT22;11313;50.116;8.424;2023-02-13T01:58:42;24.20;41.40
22290;DHT22;11313;50.116;8.424;2023-02-13T02:01:09;24.30;41.50
22290;DHT22;11313;50.116;8.424;2023-02-13T02:06:33;24.20;41.40
22290;DHT22;11313;50.116;8.424;2023-02-13T02:09:04;24.20;41.50
22290;DHT22;11313;50.116;8.424;2023-02-13T02:14:34;24.20;41.50
22290;DHT22;11313;50.116;8.424;2023-02-13T02:17:00;24.30;41.50
22290;DHT22;11313;50.116;8.424;2023-02-13T02:22:33;24.30;41.50
22290;DHT22;11313;50.116;8.424;2023-02-13T02:36:51;24.30;41.50
22290;DHT22;11313;50.116;8.424;2023-02-13T02:42:18;24.30;41.40
22290;DHT22;11313;50.116;8.424;2023-02-13T02:50:46;24.30;41.40
22290;DHT22;11313;50.116;8.424;2023-02-13T02:53:28;24.30;41.40
22290;DHT22;11313;50.116;8.424;2023-02-13T02:58:31;24.30;41.40
22290;DHT22;11313;50.116;8.424;2023-02-13T03:01:19;24.30;41.50
22290;DHT22;11313;50.116;8.424;2023-02-13T03:04:05;24.30;41.40
22290;DHT22;11313;50.116;8.424;2023-02-13T03:06:58;24.30;41.50
22290;DHT22;11313;50.116;8.424;2023-02-13T03:09:31;24.30;41.40
22290;DHT22;11313;50.116;8.424;2023-02-13T03:12:21;24.30;41.40
22290;DHT22;11313;50.116;8.424;2023-02-13T03:15:07;24.30;41.40
22290;DHT22;11313;50.116;8.424;2023-02-13T03:17:33;24.30;41.40
22290;DHT22;11313;50.116;8.424;2023-02-13T03:20:51;24.30;41.30
22290;DHT22;11313;50.116;8.424;2023-02-13T03:23:50;24.30;41.30
22290;DHT22;11313;50.116;8.424;2023-02-13T03:26:30;24.30;41.30
22290;DHT22;11313;50.116;8.424;2023-02-13T03:29:43;24.40;41.30
22290;DHT22;11313;50.116;8.424;2023-02-13T03:35:36;24.30;41.30
22290;DHT22;11313;50.116;8.424;2023-02-13T03:38:36;24.30;41.20
22290;DHT22;11313;50.116;8.424;2023-02-13T03:41:12;24.40;41.20
22290;DHT22;11313;50.116;8.424;2023-02-13T03:46:30;24.40;41.20
22290;DHT22;11313;50.116;8.424;2023-02-13T03:48:58;24.40;41.20
22290;DHT22;11313;50.116;8.424;2023-02-13T03:54:41;24.40;41.20
22290;DHT22;11313;50.116;8.424;2023-02-13T03:57:29;24.40;41.10
22290;DHT22;11313;50.116;8.424;2023-02-13T04:00:16;24.40;41.10
22290;DHT22;11313;50.116;8.424;2023-02-13T04:02:49;24.40;41.10
22290;DHT22;11313;50.116;8.424;2023-02-13T04:05:20;24.40;41.10
22290;DHT22;11313;50.116;8.424;2023-02-13T04:07:47;24.40;41.10
22290;DHT22;11313;50.116;8.424;2023-02-13T04:10:15;24.40;41.10
22290;DHT22;11313;50.116;8.424;2023-02-13T04:13:21;24.40;41.10
22290;DHT22;11313;50.116;8.424;2023-02-13T04:15:54;24.50;41.20
22290;DHT22;11313;50.116;8.424;2023-02-13T04:18:26;24.40;41.10
22290;DHT22;11313;50.116;8.424;2023-02-13T04:20:53;24.40;41.10
22290;DHT22;11313;50.116;8.424;2023-02-13T04:23:19;24.40;41.00
22290;DHT22;11313;50.116;8.424;2023-02-13T04:25:48;24.50;41.10
22290;DHT22;11313;50.116;8.424;2023-02-13T04:28:14;24.40;41.00
22290;DHT22;11313;50.116;8.424;2023-02-13T04:30:39;24.50;41.10
22290;DHT22;11313;50.116;8.424;2023-02-13T04:33:05;24.40;41.10
22290;DHT22;11313;50.116;8.424;2023-02-13T04:35:30;24.40;41.10
22290;DHT22;11313;50.116;8.424;2023-02-13T04:37:56;24.50;41.20
22290;DHT22;11313;50.116;8.424;2023-02-13T04:40:21;24.40;41.10
22290;DHT22;11313;50.116;8.424;2023-02-13T04:42:48;24.50;41.10
22290;DHT22;11313;50.116;8.424;2023-02-13T04:45:13;24.50;41.10
22290;DHT22;11313;50.116;8.424;2023-02-13T04:47:39;24.50;41.10
22290;DHT22;11313;50.116;8.424;2023-02-13T04:50:05;24.40;41.00
22290;DHT22;11313;50.116;8.424;2023-02-13T04:52:30;24.40;41.00
22290;DHT22;11313;50.116;8.424;2023-02-13T04:54:56;24.40;41.00
22290;DHT22;11313;50.116;8.424;2023-02-13T04:57:21;24.40;41.00
22290;DHT22;11313;50.116;8.424;2023-02-13T04:59:47;24.40;41.00
22290;DHT22;11313;50.116;8.424;2023-02-13T05:02:12;24.40;41.00
22290;DHT22;11313;50.116;8.424;2023-02-13T05:04:38;24.40;41.00
22290;DHT22;11313;50.116;8.424;2023-02-13T05:07:03;24.40;41.00
22290;DHT22;11313;50.116;8.424;2023-02-13T05:09:29;24.40;41.00
22290;DHT22;11313;50.116;8.424;2023-02-13T05:11:54;24.40;41.00
22290;DHT22;11313;50.116;8.424;2023-02-13T05:14:20;24.40;41.10
22290;DHT22;11313;50.116;8.424;2023-02-13T05:16:46;24.40;41.10
22290;DHT22;11313;50.116;8.424;2023-02-13T05:19:11;24.40;41.00
22290;DHT22;11313;50.116;8.424;2023-02-13T05:21:37;24.40;41.10
22290;DHT22;11313;50.116;8.424;2023-02-13T05:24:21;24.40;41.10
22290;DHT22;11313;50.116;8.424;2023-02-13T05:26:46;24.40;41.00
22290;DHT22;11313;50.116;8.424;2023-02-13T05:29:12;24.40;41.00
22290;DHT22;11313;50.116;8.424;2023-02-13T05:31:45;24.40;41.10
22290;DHT22;11313;50.116;8.424;2023-02-13T05:34:10;24.40;41.10
22290;DHT22;11313;50.116;8.424;2023-02-13T05:36:36;24.40;41.10
22290;DHT22;11313;50.116;8.424;2023-02-13T05:39:01;24.40;41.20
22290;DHT22;11313;50.116;8.424;2023-02-13T05:41:27;24.40;41.40
22290;DHT22;11313;50.116;8.424;2023-02-13T05:43:52;24.40;41.40
22290;DHT22;11313;50.116;8.424;2023-02-13T05:46:18;24.40;41.40
22290;DHT22;11313;50.116;8.424;2023-02-13T05:48:43;24.40;41.40
22290;DHT22;11313;50.116;8.424;2023-02-13T05:51:09;24.40;41.40
22290;DHT22;11313;50.116;8.424;2023-02-13T05:53:34;24.40;41.40
22290;DHT22;11313;50.116;8.424;2023-02-13T05:56:01;24.40;41.40
22290;DHT22;11313;50.116;8.424;2023-02-13T05:58:27;24.40;41.40
22290;DHT22;11313;50.116;8.424;2023-02-13T06:00:55;24.40;41.30
22290;DHT22;11313;50.116;8.424;2023-02-13T06:03:23;24.40;41.60
22290;DHT22;11313;50.116;8.424;2023-02-13T06:05:48;24.40;42.40
22290;DHT22;11313;50.116;8.424;2023-02-13T06:08:14;24.40;42.60
22290;DHT22;11313;50.116;8.424;2023-02-13T06:10:39;24.40;42.60
22290;DHT22;11313;50.116;8.424;2023-02-13T06:13:05;24.40;42.60
22290;DHT22;11313;50.116;8.424;2023-02-13T06:15:30;24.40;42.70
22290;DHT22;11313;50.116;8.424;2023-02-13T06:17:56;24.50;42.50
22290;DHT22;11313;50.116;8.424;2023-02-13T06:20:21;24.50;42.50
22290;DHT22;11313;50.116;8.424;2023-02-13T06:22:48;24.50;42.60
22290;DHT22;11313;50.116;8.424;2023-02-13T06:25:15;24.50;42.60
22290;DHT22;11313;50.116;8.424;2023-02-13T06:27:40;24.50;42.60
22290;DHT22;11313;50.116;8.424;2023-02-13T06:30:06;24.50;42.50
22290;DHT22;11313;50.116;8.424;2023-02-13T06:32:32;24.50;42.50
22290;DHT22;11313;50.116;8.424;2023-02-13T06:34:57;24.50;42.30
22290;DHT22;11313;50.116;8.424;2023-02-13T06:37:23;24.50;42.10
22290;DHT22;11313;50.116;8.424;2023-02-13T06:39:48;24.50;42.90
22290;DHT22;11313;50.116;8.424;2023-02-13T06:42:14;24.50;42.30
22290;DHT22;11313;50.116;8.424;2023-02-13T06:44:39;24.50;42.30
22290;DHT22;11313;50.116;8.424;2023-02-13T06:47:05;24.50;42.40
22290;DHT22;11313;50.116;8.424;2023-02-13T06:49:30;24.50;42.40
22290;DHT22;11313;50.116;8.424;2023-02-13T06:51:56;24.50;42.30
22290;DHT22;11313;50.116;8.424;2023-02-13T06:54:21;24.50;42.30
22290;DHT22;11313;50.116;8.424;2023-02-13T06:56:46;24.50;42.40
22290;DHT22;11313;50.116;8.424;2023-02-13T06:59:12;24.50;42.30
22290;DHT22;11313;50.116;8.424;2023-02-13T07:01:38;24.50;42.40
22290;DHT22;11313;50.116;8.424;2023-02-13T07:04:03;24.50;43.00
22290;DHT22;11313;50.116;8.424;2023-02-13T07:06:29;24.50;43.30
22290;DHT22;11313;50.116;8.424;2023-02-13T07:08:54;24.60;43.70
22290;DHT22;11313;50.116;8.424;2023-02-13T07:11:21;24.60;43.70
22290;DHT22;11313;50.116;8.424;2023-02-13T07:13:48;24.60;43.70
22290;DHT22;11313;50.116;8.424;2023-02-13T07:16:13;24.60;43.70
22290;DHT22;11313;50.116;8.424;2023-02-13T07:18:39;24.60;43.60
22290;DHT22;11313;50.116;8.424;2023-02-13T07:21:05;24.60;43.60
22290;DHT22;11313;50.116;8.424;2023-02-13T07:23:30;24.60;43.50
22290;DHT22;11313;50.116;8.424;2023-02-13T07:25:58;24.60;43.50
22290;DHT22;11313;50.116;8.424;2023-02-13T07:28:24;24.60;43.40
22290;DHT22;11313;50.116;8.424;2023-02-13T07:30:50;24.50;43.40
22290;DHT22;11313;50.116;8.424;2023-02-13T07:33:16;24.50;43.40
22290;DHT22;11313;50.116;8.424;2023-02-13T07:35:48;24.50;43.40
22290;DHT22;11313;50.116;8.424;2023-02-13T07:38:14;24.50;43.30
22290;DHT22;11313;50.116;8.424;2023-02-13T07:40:40;24.50;43.30
22290;DHT22;11313;50.116;8.424;2023-02-13T07:43:05;24.60;43.30
22290;DHT22;11313;50.116;8.424;2023-02-13T07:45:31;24.60;43.20
22290;DHT22;11313;50.116;8.424;2023-02-13T07:47:57;24.50;43.20
22290;DHT22;11313;50.116;8.424;2023-02-13T07:50:22;24.50;43.10
22290;DHT22;11313;50.116;8.424;2023-02-13T07:52:55;24.50;43.10
22290;DHT22;11313;50.116;8.424;2023-02-13T07:55:21;24.50;43.00
22290;DHT22;11313;50.116;8.424;2023-02-13T07:57:47;24.50;43.00
22290;DHT22;11313;50.116;8.424;2023-02-13T08:00:13;24.50;43.00
22290;DHT22;11313;50.116;8.424;2023-02-13T08:02:39;24.50;42.90
22290;DHT22;11313;50.116;8.424;2023-02-13T08:05:04;24.50;42.80
22290;DHT22;11313;50.116;8.424;2023-02-13T08:07:30;24.50;42.80
22290;DHT22;11313;50.116;8.424;2023-02-13T08:09:56;24.50;42.70
22290;DHT22;11313;50.116;8.424;2023-02-13T08:12:40;24.50;42.70
22290;DHT22;11313;50.116;8.424;2023-02-13T08:15:08;24.50;42.70
22290;DHT22;11313;50.116;8.424;2023-02-13T08:17:35;24.50;42.60
22290;DHT22;11313;50.116;8.424;2023-02-13T08:20:01;24.50;42.60
22290;DHT22;11313;50.116;8.424;2023-02-13T08:22:26;24.50;42.50
22290;DHT22;11313;50.116;8.424;2023-02-13T08:24:51;24.50;42.50
22290;DHT22;11313;50.116;8.424;2023-02-13T08:27:17;24.50;42.50
22290;DHT22;11313;50.116;8.424;2023-02-13T08:29:42;24.50;42.40
22290;DHT22;11313;50.116;8.424;2023-02-13T08:32:08;24.50;42.40
22290;DHT22;11313;50.116;8.424;2023-02-13T08:34:34;24.50;42.30
22290;DHT22;11313;50.116;8.424;2023-02-13T08:37:01;24.50;42.30
22290;DHT22;11313;50.116;8.424;2023-02-13T08:39:27;24.50;42.30
22290;DHT22;11313;50.116;8.424;2023-02-13T08:41:52;24.50;42.30
22290;DHT22;11313;50.116;8.424;2023-02-13T08:44:17;24.50;42.90
22290;DHT22;11313;50.116;8.424;2023-02-13T08:46:43;24.50;42.20
22290;DHT22;11313;50.116;8.424;2023-02-13T08:49:11;24.50;42.20
22290;DHT22;11313;50.116;8.424;2023-02-13T08:51:37;24.50;42.20
22290;DHT22;11313;50.116;8.424;2023-02-13T08:54:02;24.50;42.10
22290;DHT22;11313;50.116;8.424;2023-02-13T08:56:28;24.50;42.10
22290;DHT22;11313;50.116;8.424;2023-02-13T08:58:53;24.50;42.10
22290;DHT22;11313;50.116;8.424;2023-02-13T09:01:20;24.50;42.00
22290;DHT22;11313;50.116;8.424;2023-02-13T09:03:45;24.60;42.00
22290;DHT22;11313;50.116;8.424;2023-02-13T09:06:11;24.50;41.90
22290;DHT22;11313;50.116;8.424;2023-02-13T09:08:36;24.60;41.90
22290;DHT22;11313;50.116;8.424;2023-02-13T09:11:03;24.50;41.90
22290;DHT22;11313;50.116;8.424;2023-02-13T09:13:31;24.60;41.80
22290;DHT22;11313;50.116;8.424;2023-02-13T09:16:04;24.60;41.80
22290;DHT22;11313;50.116;8.424;2023-02-13T09:18:31;24.60;41.70
22290;DHT22;11313;50.116;8.424;2023-02-13T09:20:58;24.60;41.70
22290;DHT22;11313;50.116;8.424;2023-02-13T09:23:23;24.60;41.60
22290;DHT22;11313;50.116;8.424;2023-02-13T09:25:49;24.60;41.60
22290;DHT22;11313;50.116;8.424;2023-02-13T09:28:14;24.60;41.60
22290;DHT22;11313;50.116;8.424;2023-02-13T09:30:40;24.70;41.50
22290;DHT22;11313;50.116;8.424;2023-02-13T09:33:09;24.60;41.50
22290;DHT22;11313;50.116;8.424;2023-02-13T09:35:36;24.60;41.50
22290;DHT22;11313;50.116;8.424;2023-02-13T09:38:01;24.70;41.50
22290;DHT22;11313;50.116;8.424;2023-02-13T09:40:35;24.70;41.50
22290;DHT22;11313;50.116;8.424;2023-02-13T09:43:09;24.70;41.40
22290;DHT22;11313;50.116;8.424;2023-02-13T09:45:35;24.70;41.40
22290;DHT22;11313;50.116;8.424;2023-02-13T09:48:01;24.70;41.30
22290;DHT22;11313;50.116;8.424;2023-02-13T09:50:30;24.70;41.20
22290;DHT22;11313;50.116;8.424;2023-02-13T09:52:58;24.70;41.20
22290;DHT22;11313;50.116;8.424;2023-02-13T09:55:41;24.70;41.20
22290;DHT22;11313;50.116;8.424;2023-02-13T09:58:21;24.70;41.10
22290;DHT22;11313;50.116;8.424;2023-02-13T10:00:53;24.70;41.10
22290;DHT22;11313;50.116;8.424;2023-02-13T10:03:35;24.70;41.00
22290;DHT22;11313;50.116;8.424;2023-02-13T10:06:09;24.70;41.00
22290;DHT22;11313;50.116;8.424;2023-02-13T10:11:52;24.70;41.00
22290;DHT22;11313;50.116;8.424;2023-02-13T10:17:37;24.70;41.00
22290;DHT22;11313;50.116;8.424;2023-02-13T10:20:09;24.70;40.90
22290;DHT22;11313;50.116;8.424;2023-02-13T10:25:48;24.70;40.90
22290;DHT22;11313;50.116;8.424;2023-02-13T10:28:26;24.70;40.90
22290;DHT22;11313;50.116;8.424;2023-02-13T10:30:56;24.70;40.80
22290;DHT22;11313;50.116;8.424;2023-02-13T10:33:35;24.70;40.80
22290;DHT22;11313;50.116;8.424;2023-02-13T10:38:39;24.70;40.80
22290;DHT22;11313;50.116;8.424;2023-02-13T10:41:27;24.70;40.80
22290;DHT22;11313;50.116;8.424;2023-02-13T10:52:08;24.70;40.80
22290;DHT22;11313;50.116;8.424;2023-02-13T10:54:54;24.70;40.80
22290;DHT22;11313;50.116;8.424;2023-02-13T10:57:52;24.70;40.80
22290;DHT22;11313;50.116;8.424;2023-02-13T11:00:34;24.70;40.80
22290;DHT22;11313;50.116;8.424;2023-02-13T11:03:01;24.70;40.80
22290;DHT22;11313;50.116;8.424;2023-02-13T11:05:38;24.70;40.80
22290;DHT22;11313;50.116;8.424;2023-02-13T11:08:27;24.70;40.80
22290;DHT22;11313;50.116;8.424;2023-02-13T11:10:55;24.70;40.70
22290;DHT22;11313;50.116;8.424;2023-02-13T11:13:23;24.70;40.80
22290;DHT22;11313;50.116;8.424;2023-02-13T11:16:04;24.70;40.70
22290;DHT22;11313;50.116;8.424;2023-02-13T11:18:33;24.70;40.50
22290;DHT22;11313;50.116;8.424;2023-02-13T11:21:04;24.70;40.40
22290;DHT22;11313;50.116;8.424;2023-02-13T11:23:35;24.60;40.10
22290;DHT22;11313;50.116;8.424;2023-02-13T11:26:48;24.70;40.10
22290;DHT22;11313;50.116;8.424;2023-02-13T11:29:14;24.70;40.10
22290;DHT22;11313;50.116;8.424;2023-02-13T11:31:40;24.70;40.30
22290;DHT22;11313;50.116;8.424;2023-02-13T11:36:50;24.70;40.40
22290;DHT22;11313;50.116;8.424;2023-02-13T11:39:25;24.70;40.40
22290;DHT22;11313;50.116;8.424;2023-02-13T11:41:51;24.70;40.50
22290;DHT22;11313;50.116;8.424;2023-02-13T11:44:37;24.70;40.50
22290;DHT22;11313;50.116;8.424;2023-02-13T11:47:04;24.70;40.50
22290;DHT22;11313;50.116;8.424;2023-02-13T11:49:38;24.70;40.50
22290;DHT22;11313;50.116;8.424;2023-02-13T11:52:27;24.70;40.60
22290;DHT22;11313;50.116;8.424;2023-02-13T11:55:24;24.70;40.60
22290;DHT22;11313;50.116;8.424;2023-02-13T12:00:39;24.70;40.60
22290;DHT22;11313;50.116;8.424;2023-02-13T12:06:18;24.70;40.70
22290;DHT22;11313;50.116;8.424;2023-02-13T12:08:46;24.70;40.70
22290;DHT22;11313;50.116;8.424;2023-02-13T12:14:38;24.60;40.70
22290;DHT22;11313;50.116;8.424;2023-02-13T12:17:14;24.70;40.70
22290;DHT22;11313;50.116;8.424;2023-02-13T12:19:43;24.70;41.40
22290;DHT22;11313;50.116;8.424;2023-02-13T12:22:14;24.70;40.70
22290;DHT22;11313;50.116;8.424;2023-02-13T12:28:02;24.70;40.70
22290;DHT22;11313;50.116;8.424;2023-02-13T12:33:15;24.70;40.70
22290;DHT22;11313;50.116;8.424;2023-02-13T12:54:59;24.70;40.70
22290;DHT22;11313;50.116;8.424;2023-02-13T12:57:40;24.70;40.80
22290;DHT22;11313;50.116;8.424;2023-02-13T13:06:08;24.80;41.90
22290;DHT22;11313;50.116;8.424;2023-02-13T13:11:23;24.80;42.00
22290;DHT22;11313;50.116;8.424;2023-02-13T13:22:40;24.90;42.10
22290;DHT22;11313;50.116;8.424;2023-02-13T13:28:20;24.90;42.10
22290;DHT22;11313;50.116;8.424;2023-02-13T13:30:46;24.90;42.00
22290;DHT22;11313;50.116;8.424;2023-02-13T13:33:21;24.90;42.00
22290;DHT22;11313;50.116;8.424;2023-02-13T13:38:29;24.90;42.00
22290;DHT22;11313;50.116;8.424;2023-02-13T13:41:14;24.90;42.00
22290;DHT22;11313;50.116;8.424;2023-02-13T13:51:42;24.90;42.00
22290;DHT22;11313;50.116;8.424;2023-02-13T13:59:24;24.90;41.90
22290;DHT22;11313;50.116;8.424;2023-02-13T14:07:39;24.90;41.90
22290;DHT22;11313;50.116;8.424;2023-02-13T14:17:59;24.90;41.90
22290;DHT22;11313;50.116;8.424;2023-02-13T14:23:43;24.90;41.90
22290;DHT22;11313;50.116;8.424;2023-02-13T14:31:35;24.90;41.90
22290;DHT22;11313;50.116;8.424;2023-02-13T14:36:33;24.90;41.80
22290;DHT22;11313;50.116;8.424;2023-02-13T14:44:43;24.90;41.80
22290;DHT22;11313;50.116;8.424;2023-02-13T14:47:27;24.90;41.80
22290;DHT22;11313;50.116;8.424;2023-02-13T14:49:54;24.90;41.80
22290;DHT22;11313;50.116;8.424;2023-02-13T14:52:24;24.90;41.80
22290;DHT22;11313;50.116;8.424;2023-02-13T14:54:58;24.90;41.80
22290;DHT22;11313;50.116;8.424;2023-02-13T14:57:41;24.90;41.90
22290;DHT22;11313;50.116;8.424;2023-02-13T15:00:37;24.90;41.80
22290;DHT22;11313;50.116;8.424;2023-02-13T15:05:58;24.80;41.80
22290;DHT22;11313;50.116;8.424;2023-02-13T15:08:38;24.90;41.80
22290;DHT22;11313;50.116;8.424;2023-02-13T15:11:05;24.90;41.80
22290;DHT22;11313;50.116;8.424;2023-02-13T15:13:50;24.90;41.80
22290;DHT22;11313;50.116;8.424;2023-02-13T15:16:16;24.90;41.90
22290;DHT22;11313;50.116;8.424;2023-02-13T15:18:50;24.80;41.80
22290;DHT22;11313;50.116;8.424;2023-02-13T15:21:22;24.90;41.80
22290;DHT22;11313;50.116;8.424;2023-02-13T15:23:51;24.80;41.80
22290;DHT22;11313;50.116;8.424;2023-02-13T15:26:22;24.80;41.80
22290;DHT22;11313;50.116;8.424;2023-02-13T15:29:02;24.80;41.80
22290;DHT22;11313;50.116;8.424;2023-02-13T15:31:32;24.80;41.80
22290;DHT22;11313;50.116;8.424;2023-02-13T15:33:59;24.80;41.80
22290;DHT22;11313;50.116;8.424;2023-02-13T15:36:33;24.80;41.90
22290;DHT22;11313;50.116;8.424;2023-02-13T15:39:03;24.80;41.80
22290;DHT22;11313;50.116;8.424;2023-02-13T15:41:35;24.80;41.80
22290;DHT22;11313;50.116;8.424;2023-02-13T15:44:02;24.80;42.50
22290;DHT22;11313;50.116;8.424;2023-02-13T15:46:30;24.80;41.80
22290;DHT22;11313;50.116;8.424;2023-02-13T15:48:59;24.80;41.90
22290;DHT22;11313;50.116;8.424;2023-02-13T15:51:28;24.80;41.90
22290;DHT22;11313;50.116;8.424;2023-02-13T15:56:26;24.80;41.90
22290;DHT22;11313;50.116;8.424;2023-02-13T15:58:53;24.70;41.80
22290;DHT22;11313;50.116;8.424;2023-02-13T16:01:20;24.70;41.80
22290;DHT22;11313;50.116;8.424;2023-02-13T16:03:58;24.80;41.90
22290;DHT22;11313;50.116;8.424;2023-02-13T16:06:26;24.70;41.90
22290;DHT22;11313;50.116;8.424;2023-02-13T16:08:57;24.80;41.90
22290;DHT22;11313;50.116;8.424;2023-02-13T16:19:24;24.70;41.90
22290;DHT22;11313;50.116;8.424;2023-02-13T16:21:52;24.70;41.90
22290;DHT22;11313;50.116;8.424;2023-02-13T16:24:20;24.70;41.90
22290;DHT22;11313;50.116;8.424;2023-02-13T16:26:46;24.70;41.90
22290;DHT22;11313;50.116;8.424;2023-02-13T16:29:29;24.70;41.90
22290;DHT22;11313;50.116;8.424;2023-02-13T16:32:03;24.70;41.90
22290;DHT22;11313;50.116;8.424;2023-02-13T16:34:30;24.70;41.90
22290;DHT22;11313;50.116;8.424;2023-02-13T16:36:55;24.60;41.90
22290;DHT22;11313;50.116;8.424;2023-02-13T16:39:30;24.60;41.90
22290;DHT22;11313;50.116;8.424;2023-02-13T16:41:59;24.60;41.90
22290;DHT22;11313;50.116;8.424;2023-02-13T16:44:29;24.60;42.00
22290;DHT22;11313;50.116;8.424;2023-02-13T16:46:57;24.60;42.00
22290;DHT22;11313;50.116;8.424;2023-02-13T16:49:28;24.60;42.40
22290;DHT22;11313;50.116;8.424;2023-02-13T16:52:09;24.60;42.70
22290;DHT22;11313;50.116;8.424;2023-02-13T16:54:53;24.60;42.70
22290;DHT22;11313;50.116;8.424;2023-02-13T16:57:26;24.60;43.10
22290;DHT22;11313;50.116;8.424;2023-02-13T17:00:04;24.60;43.50
22290;DHT22;11313;50.116;8.424;2023-02-13T17:02:37;24.70;43.90
22290;DHT22;11313;50.116;8.424;2023-02-13T17:07:38;24.60;43.60
22290;DHT22;11313;50.116;8.424;2023-02-13T17:12:45;24.70;43.40
22290;DHT22;11313;50.116;8.424;2023-02-13T17:15:12;24.60;43.20
22290;DHT22;11313;50.116;8.424;2023-02-13T17:17:38;24.60;43.20
22290;DHT22;11313;50.116;8.424;2023-02-13T17:20:05;24.60;43.10
22290;DHT22;11313;50.116;8.424;2023-02-13T17:22:38;24.60;43.80
22290;DHT22;11313;50.116;8.424;2023-02-13T17:25:19;24.60;44.60
22290;DHT22;11313;50.116;8.424;2023-02-13T17:27:47;24.70;44.80
22290;DHT22;11313;50.116;8.424;2023-02-13T17:30:21;24.70;45.30
22290;DHT22;11313;50.116;8.424;2023-02-13T17:32:48;24.70;44.50
22290;DHT22;11313;50.116;8.424;2023-02-13T17:35:14;24.70;44.40
22290;DHT22;11313;50.116;8.424;2023-02-13T17:37:41;24.70;44.40
22290;DHT22;11313;50.116;8.424;2023-02-13T17:40:08;24.70;44.30
22290;DHT22;11313;50.116;8.424;2023-02-13T17:42:35;24.70;44.30
22290;DHT22;11313;50.116;8.424;2023-02-13T17:45:00;24.70;44.20
22290;DHT22;11313;50.116;8.424;2023-02-13T17:47:26;24.70;44.20
22290;DHT22;11313;50.116;8.424;2023-02-13T17:49:52;24.70;44.10
22290;DHT22;11313;50.116;8.424;2023-02-13T17:52:20;24.70;44.30
22290;DHT22;11313;50.116;8.424;2023-02-13T17:54:47;24.70;44.30
22290;DHT22;11313;50.116;8.424;2023-02-13T17:57:14;24.70;44.10
22290;DHT22;11313;50.116;8.424;2023-02-13T17:59:40;24.70;44.00
22290;DHT22;11313;50.116;8.424;2023-02-13T18:02:20;24.70;44.10
22290;DHT22;11313;50.116;8.424;2023-02-13T18:04:46;24.70;44.00
22290;DHT22;11313;50.116;8.424;2023-02-13T18:07:14;24.70;43.90
22290;DHT22;11313;50.116;8.424;2023-02-13T18:09:40;24.70;43.90
22290;DHT22;11313;50.116;8.424;2023-02-13T18:12:06;24.70;43.90
22290;DHT22;11313;50.116;8.424;2023-02-13T18:14:33;24.70;43.80
22290;DHT22;11313;50.116;8.424;2023-02-13T18:16:59;24.70;43.80
22290;DHT22;11313;50.116;8.424;2023-02-13T18:19:25;24.70;43.80
22290;DHT22;11313;50.116;8.424;2023-02-13T18:21:51;24.70;43.80
22290;DHT22;11313;50.116;8.424;2023-02-13T18:24:17;24.70;43.70
22290;DHT22;11313;50.116;8.424;2023-02-13T18:26:42;24.60;43.70
22290;DHT22;11313;50.116;8.424;2023-02-13T18:29:08;24.60;43.60
22290;DHT22;11313;50.116;8.424;2023-02-13T18:31:33;24.70;43.50
22290;DHT22;11313;50.116;8.424;2023-02-13T18:33:59;24.60;43.40
22290;DHT22;11313;50.116;8.424;2023-02-13T18:36:24;24.60;43.30
22290;DHT22;11313;50.116;8.424;2023-02-13T18:38:51;24.60;43.30
22290;DHT22;11313;50.116;8.424;2023-02-13T18:41:17;24.60;43.20
22290;DHT22;11313;50.116;8.424;2023-02-13T18:43:43;24.60;43.20
22290;DHT22;11313;50.116;8.424;2023-02-13T18:46:08;24.60;43.20
22290;DHT22;11313;50.116;8.424;2023-02-13T18:48:34;24.60;43.20
22290;DHT22;11313;50.116;8.424;2023-02-13T18:51:00;24.60;43.20
22290;DHT22;11313;50.116;8.424;2023-02-13T18:53:26;24.60;43.20